EVA395 RCTP-VVTS
Flight info
| Callsign | EVA395 |
|---|---|
| Flight time | N/A |
| Altitude | 36000 |
| Route | CHALI T5 PARPA A577 KABAM N892 MIGUG/K0880F360 N892 MESOX Q15 CRA W15 VETOM |
| Aircraft | B77W/H-SDE1E2E3FGHIJ1J3J4J5LM1P2RWXYZ/LB1D1 |
Departure
| Time | 2026-05-08 06:39 |
|---|---|
| Airport | Taiwan Taoyuan International Airport (RCTP) |
Arrival
| Time | N/A |
|---|---|
| Airport | Tan Son Nhat International Airport (VVTS) |
| Time | Latitude | Longitude | Altitude | Speed | Heading |
|---|---|---|---|---|---|
| 2026-05-08 06:21 | 25.07599 | 121.23439 | 106 ft | 0 kts | 319° |
| 2026-05-08 06:28 | 25.07593 | 121.23445 | 106 ft | 2 kts | 316° |
| 2026-05-08 06:28 | 25.07581 | 121.23458 | 106 ft | 2 kts | 314° |
| 2026-05-08 06:29 | 25.07570 | 121.23471 | 106 ft | 2 kts | 311° |
| 2026-05-08 06:29 | 25.07559 | 121.23485 | 103 ft | 2 kts | 306° |
| 2026-05-08 06:29 | 25.07550 | 121.23500 | 105 ft | 2 kts | 299° |
| 2026-05-08 06:29 | 25.07543 | 121.23516 | 107 ft | 2 kts | 288° |
| 2026-05-08 06:30 | 25.07539 | 121.23534 | 106 ft | 2 kts | 271° |
| 2026-05-08 06:30 | 25.07541 | 121.23552 | 105 ft | 2 kts | 248° |
| 2026-05-08 06:30 | 25.07548 | 121.23567 | 105 ft | 1 kts | 231° |
| 2026-05-08 06:30 | 25.07550 | 121.23570 | 105 ft | 0 kts | 230° |
| 2026-05-08 06:32 | 25.07546 | 121.23565 | 105 ft | 4 kts | 230° |
| 2026-05-08 06:32 | 25.07512 | 121.23521 | 106 ft | 8 kts | 230° |
| 2026-05-08 06:32 | 25.07474 | 121.23472 | 108 ft | 8 kts | 229° |
| 2026-05-08 06:32 | 25.07436 | 121.23423 | 107 ft | 8 kts | 229° |
| 2026-05-08 06:33 | 25.07398 | 121.23374 | 109 ft | 8 kts | 229° |
| 2026-05-08 06:33 | 25.07359 | 121.23325 | 108 ft | 8 kts | 229° |
| 2026-05-08 06:33 | 25.07321 | 121.23276 | 107 ft | 8 kts | 229° |
| 2026-05-08 06:33 | 25.07283 | 121.23227 | 107 ft | 8 kts | 229° |
| 2026-05-08 06:34 | 25.07235 | 121.23191 | 108 ft | 8 kts | 192° |
| 2026-05-08 06:34 | 25.07179 | 121.23210 | 107 ft | 9 kts | 148° |
| 2026-05-08 06:34 | 25.07129 | 121.23253 | 108 ft | 10 kts | 141° |
| 2026-05-08 06:34 | 25.07067 | 121.23260 | 107 ft | 10 kts | 203° |
| 2026-05-08 06:35 | 25.07014 | 121.23213 | 107 ft | 10 kts | 227° |
| 2026-05-08 06:35 | 25.06964 | 121.23150 | 107 ft | 14 kts | 229° |
| 2026-05-08 06:35 | 25.06873 | 121.23034 | 107 ft | 25 kts | 229° |
| 2026-05-08 06:35 | 25.06757 | 121.22887 | 105 ft | 25 kts | 229° |
| 2026-05-08 06:36 | 25.06641 | 121.22740 | 106 ft | 25 kts | 229° |
| 2026-05-08 06:36 | 25.06525 | 121.22593 | 106 ft | 25 kts | 229° |
| 2026-05-08 06:36 | 25.06410 | 121.22448 | 107 ft | 21 kts | 229° |
| 2026-05-08 06:36 | 25.06341 | 121.22361 | 107 ft | 11 kts | 229° |
| 2026-05-08 06:37 | 25.06293 | 121.22299 | 106 ft | 11 kts | 229° |
| 2026-05-08 06:37 | 25.06235 | 121.22253 | 106 ft | 11 kts | 185° |
| 2026-05-08 06:37 | 25.06165 | 121.22289 | 105 ft | 12 kts | 141° |
| 2026-05-08 06:37 | 25.06118 | 121.22342 | 103 ft | 9 kts | 120° |
| 2026-05-08 06:38 | 25.06126 | 121.22407 | 102 ft | 9 kts | 59° |
| 2026-05-08 06:38 | 25.06147 | 121.22435 | 103 ft | 0 kts | 50° |
| 2026-05-08 06:38 | 25.06182 | 121.22481 | 103 ft | 25 kts | 49° |
| 2026-05-08 06:38 | 25.06482 | 121.22859 | 100 ft | 105 kts | 49° |
| 2026-05-08 06:39 | 25.07117 | 121.23662 | 144 ft | 164 kts | 49° |
| 2026-05-08 06:39 | 25.07838 | 121.24608 | 956 ft | 163 kts | 49° |
| 2026-05-08 06:39 | 25.08580 | 121.25564 | 1773 ft | 165 kts | 50° |
| 2026-05-08 06:39 | 25.09361 | 121.26569 | 2286 ft | 185 kts | 51° |
| 2026-05-08 06:40 | 25.10261 | 121.27734 | 2589 ft | 215 kts | 51° |
| 2026-05-08 06:40 | 25.11269 | 121.29040 | 3103 ft | 233 kts | 51° |
| 2026-05-08 06:40 | 25.12509 | 121.30269 | 3727 ft | 248 kts | 28° |
| 2026-05-08 06:40 | 25.14213 | 121.30707 | 4399 ft | 269 kts | 1° |
| 2026-05-08 06:41 | 25.16055 | 121.30191 | 5254 ft | 278 kts | 331° |
| 2026-05-08 06:41 | 25.17512 | 121.28849 | 6328 ft | 272 kts | 308° |
| 2026-05-08 06:41 | 25.18710 | 121.27213 | 7245 ft | 275 kts | 306° |
| 2026-05-08 06:41 | 25.19889 | 121.25560 | 8239 ft | 274 kts | 305° |
| 2026-05-08 06:42 | 25.21081 | 121.23891 | 9116 ft | 280 kts | 305° |
| 2026-05-08 06:42 | 25.22304 | 121.22198 | 10037 ft | 283 kts | 305° |
| 2026-05-08 06:42 | 25.23551 | 121.20487 | 10722 ft | 294 kts | 305° |
| 2026-05-08 06:42 | 25.24902 | 121.18637 | 11003 ft | 323 kts | 306° |
| 2026-05-08 06:43 | 25.26200 | 121.16538 | 11195 ft | 341 kts | 290° |
| 2026-05-08 06:43 | 25.26537 | 121.13950 | 11898 ft | 346 kts | 264° |
| 2026-05-08 06:43 | 25.25869 | 121.11405 | 12990 ft | 347 kts | 246° |
| 2026-05-08 06:43 | 25.24549 | 121.09172 | 14143 ft | 345 kts | 231° |
| 2026-05-08 06:44 | 25.22906 | 121.07201 | 14994 ft | 355 kts | 229° |
| 2026-05-08 06:44 | 25.21137 | 121.05205 | 15533 ft | 369 kts | 227° |
| 2026-05-08 06:44 | 25.19313 | 121.03189 | 16409 ft | 372 kts | 227° |
| 2026-05-08 06:44 | 25.17482 | 121.01162 | 17423 ft | 371 kts | 228° |
| 2026-05-08 06:45 | 25.15676 | 120.99152 | 18477 ft | 372 kts | 228° |
| 2026-05-08 06:45 | 25.13823 | 120.97069 | 18830 ft | 388 kts | 228° |
| 2026-05-08 06:45 | 25.11931 | 120.94928 | 19539 ft | 392 kts | 229° |
| 2026-05-08 06:45 | 25.10013 | 120.92750 | 20217 ft | 398 kts | 228° |
| 2026-05-08 06:46 | 25.08081 | 120.90554 | 20983 ft | 400 kts | 229° |
| 2026-05-08 06:46 | 25.06139 | 120.88345 | 21806 ft | 401 kts | 229° |
| 2026-05-08 06:46 | 25.04194 | 120.86134 | 22512 ft | 407 kts | 229° |
| 2026-05-08 06:46 | 25.02213 | 120.83882 | 23315 ft | 406 kts | 228° |
| 2026-05-08 06:47 | 25.00233 | 120.81634 | 23877 ft | 414 kts | 229° |
| 2026-05-08 06:47 | 24.98203 | 120.79326 | 24288 ft | 422 kts | 229° |
| 2026-05-08 06:47 | 24.96144 | 120.76988 | 24757 ft | 428 kts | 229° |
| 2026-05-08 06:47 | 24.94066 | 120.74631 | 25365 ft | 430 kts | 229° |
| 2026-05-08 06:48 | 24.91972 | 120.72257 | 25863 ft | 435 kts | 229° |
| 2026-05-08 06:48 | 24.89849 | 120.69851 | 26341 ft | 441 kts | 229° |
| 2026-05-08 06:48 | 24.87700 | 120.67415 | 26810 ft | 446 kts | 229° |
| 2026-05-08 06:48 | 24.85521 | 120.64948 | 27251 ft | 452 kts | 229° |
| 2026-05-08 06:49 | 24.83349 | 120.62490 | 27736 ft | 455 kts | 229° |
| 2026-05-08 06:49 | 24.81104 | 120.59953 | 28240 ft | 459 kts | 229° |
| 2026-05-08 06:49 | 24.78896 | 120.57457 | 28651 ft | 464 kts | 229° |
| 2026-05-08 06:49 | 24.76635 | 120.54903 | 29053 ft | 469 kts | 229° |
| 2026-05-08 06:50 | 24.74336 | 120.52336 | 29480 ft | 473 kts | 227° |
| 2026-05-08 06:50 | 24.71864 | 120.49925 | 29936 ft | 478 kts | 223° |
| 2026-05-08 06:50 | 24.69155 | 120.47763 | 30324 ft | 483 kts | 218° |
| 2026-05-08 06:50 | 24.66367 | 120.45688 | 30708 ft | 485 kts | 218° |
| 2026-05-08 06:51 | 24.63577 | 120.43622 | 31148 ft | 484 kts | 218° |
| 2026-05-08 06:51 | 24.60798 | 120.41551 | 31676 ft | 481 kts | 219° |
| 2026-05-08 06:51 | 24.58037 | 120.39478 | 32181 ft | 480 kts | 219° |
| 2026-05-08 06:51 | 24.55291 | 120.37405 | 32664 ft | 478 kts | 219° |
| 2026-05-08 06:52 | 24.52552 | 120.35332 | 33133 ft | 478 kts | 219° |
| 2026-05-08 06:52 | 24.49823 | 120.33266 | 33586 ft | 477 kts | 219° |
| 2026-05-08 06:52 | 24.47089 | 120.31201 | 34039 ft | 476 kts | 219° |
| 2026-05-08 06:52 | 24.44363 | 120.29139 | 34410 ft | 475 kts | 220° |
| 2026-05-08 06:53 | 24.41660 | 120.27060 | 34762 ft | 475 kts | 220° |
| 2026-05-08 06:53 | 24.38961 | 120.24964 | 35123 ft | 474 kts | 221° |
| 2026-05-08 06:53 | 24.36276 | 120.22873 | 35480 ft | 474 kts | 221° |
| 2026-05-08 06:53 | 24.33590 | 120.20785 | 35839 ft | 473 kts | 221° |
| 2026-05-08 06:54 | 24.30901 | 120.18699 | 36166 ft | 473 kts | 221° |
| 2026-05-08 06:54 | 24.28208 | 120.16614 | 36513 ft | 473 kts | 221° |
| 2026-05-08 06:54 | 24.25521 | 120.14538 | 36860 ft | 472 kts | 221° |
| 2026-05-08 06:54 | 24.22839 | 120.12466 | 37178 ft | 472 kts | 221° |
| 2026-05-08 06:55 | 24.20154 | 120.10393 | 37500 ft | 472 kts | 221° |
| 2026-05-08 06:55 | 24.17471 | 120.08322 | 37803 ft | 472 kts | 221° |
| 2026-05-08 06:55 | 24.14777 | 120.06243 | 37911 ft | 476 kts | 221° |
| 2026-05-08 06:55 | 24.12063 | 120.04142 | 37960 ft | 479 kts | 221° |
| 2026-05-08 06:56 | 24.06623 | 119.99930 | 37981 ft | 486 kts | 221° |
| 2026-05-08 06:56 | 24.00604 | 119.96416 | 37976 ft | 506 kts | 201° |
| 2026-05-08 06:57 | 23.97111 | 119.95703 | 37974 ft | 517 kts | 189° |
| 2026-05-08 06:57 | 23.93484 | 119.95813 | 37972 ft | 525 kts | 178° |
| 2026-05-08 06:57 | 23.86194 | 119.96850 | 37964 ft | 530 kts | 176° |
| 2026-05-08 06:58 | 23.78875 | 119.97926 | 37958 ft | 531 kts | 177° |
| 2026-05-08 06:58 | 23.71548 | 119.98898 | 37950 ft | 529 kts | 178° |
| 2026-05-08 06:59 | 23.64254 | 119.99813 | 37948 ft | 527 kts | 178° |
| 2026-05-08 06:59 | 23.56978 | 120.00724 | 37948 ft | 525 kts | 178° |
| 2026-05-08 07:00 | 23.49732 | 120.01636 | 37948 ft | 523 kts | 178° |
| 2026-05-08 07:00 | 23.42501 | 120.02549 | 37948 ft | 522 kts | 178° |
| 2026-05-08 07:01 | 23.35286 | 120.03459 | 37950 ft | 522 kts | 178° |
| 2026-05-08 07:01 | 23.28052 | 120.04370 | 37947 ft | 523 kts | 178° |
| 2026-05-08 07:02 | 23.20815 | 120.05280 | 37947 ft | 524 kts | 177° |
| 2026-05-08 07:02 | 23.13560 | 120.06138 | 37944 ft | 524 kts | 180° |
| 2026-05-08 07:03 | 23.06305 | 120.06147 | 37958 ft | 520 kts | 186° |
| 2026-05-08 07:03 | 22.99098 | 120.05904 | 37957 ft | 521 kts | 186° |
| 2026-05-08 07:04 | 22.91791 | 120.05683 | 37949 ft | 522 kts | 185° |
| 2026-05-08 07:04 | 22.84516 | 120.05504 | 37949 ft | 523 kts | 185° |
| 2026-05-08 07:05 | 22.77245 | 120.05337 | 37940 ft | 523 kts | 185° |
| 2026-05-08 07:05 | 22.69967 | 120.05169 | 37936 ft | 523 kts | 185° |
| 2026-05-08 07:06 | 22.62697 | 120.04998 | 37922 ft | 523 kts | 185° |
| 2026-05-08 07:06 | 22.55426 | 120.04826 | 37928 ft | 522 kts | 185° |
| 2026-05-08 07:07 | 22.48204 | 120.04656 | 37918 ft | 522 kts | 185° |
| 2026-05-08 07:07 | 22.40940 | 120.04485 | 37927 ft | 522 kts | 185° |
| 2026-05-08 07:08 | 22.33676 | 120.04315 | 37927 ft | 522 kts | 185° |
| 2026-05-08 07:08 | 22.26406 | 120.04144 | 37918 ft | 522 kts | 185° |
| 2026-05-08 07:09 | 22.19146 | 120.03973 | 37932 ft | 522 kts | 185° |
| 2026-05-08 07:09 | 22.11883 | 120.03803 | 37921 ft | 522 kts | 184° |
| 2026-05-08 07:10 | 22.04625 | 120.03630 | 37923 ft | 521 kts | 185° |
| 2026-05-08 07:10 | 21.97445 | 120.02835 | 37936 ft | 518 kts | 192° |
| 2026-05-08 07:11 | 21.90320 | 120.01678 | 37922 ft | 518 kts | 192° |
| 2026-05-08 07:11 | 21.83186 | 120.00566 | 37917 ft | 518 kts | 191° |
| 2026-05-08 07:12 | 21.77247 | 119.99674 | 37917 ft | 518 kts | 191° |
| 2026-05-08 07:12 | 21.70106 | 119.98598 | 37920 ft | 519 kts | 191° |
| 2026-05-08 07:13 | 21.62960 | 119.97512 | 37918 ft | 519 kts | 191° |
| 2026-05-08 07:13 | 21.55808 | 119.96426 | 37917 ft | 519 kts | 191° |
| 2026-05-08 07:14 | 21.48661 | 119.95343 | 37912 ft | 519 kts | 191° |
| 2026-05-08 07:14 | 21.41515 | 119.94262 | 37919 ft | 519 kts | 191° |
| 2026-05-08 07:15 | 21.34369 | 119.93182 | 37915 ft | 519 kts | 191° |
| 2026-05-08 07:15 | 21.27223 | 119.92103 | 37915 ft | 518 kts | 191° |
| 2026-05-08 07:16 | 21.20085 | 119.91026 | 37913 ft | 518 kts | 191° |
| 2026-05-08 07:16 | 21.12938 | 119.89948 | 37912 ft | 518 kts | 191° |
| 2026-05-08 07:17 | 21.05795 | 119.88863 | 37906 ft | 517 kts | 193° |
| 2026-05-08 07:17 | 21.02345 | 119.87887 | 37901 ft | 511 kts | 205° |
| 2026-05-08 07:17 | 20.99160 | 119.86253 | 37913 ft | 506 kts | 214° |
| 2026-05-08 07:18 | 20.93782 | 119.81575 | 37920 ft | 496 kts | 229° |
| 2026-05-08 07:18 | 20.88981 | 119.76260 | 37907 ft | 498 kts | 230° |
| 2026-05-08 07:19 | 20.84153 | 119.70937 | 37907 ft | 500 kts | 229° |
| 2026-05-08 07:19 | 20.79265 | 119.65639 | 37909 ft | 501 kts | 229° |
| 2026-05-08 07:20 | 20.74341 | 119.60347 | 37909 ft | 502 kts | 229° |
| 2026-05-08 07:20 | 20.69444 | 119.55094 | 37907 ft | 503 kts | 229° |
| 2026-05-08 07:21 | 20.64510 | 119.49801 | 37905 ft | 503 kts | 229° |
| 2026-05-08 07:21 | 20.59566 | 119.44501 | 37907 ft | 503 kts | 229° |
| 2026-05-08 07:22 | 20.54631 | 119.39213 | 37902 ft | 503 kts | 229° |
| 2026-05-08 07:22 | 20.49683 | 119.33918 | 37903 ft | 503 kts | 229° |
| 2026-05-08 07:23 | 20.44737 | 119.28630 | 37902 ft | 504 kts | 229° |
| 2026-05-08 07:23 | 20.39787 | 119.23342 | 37900 ft | 504 kts | 228° |
| 2026-05-08 07:24 | 20.34833 | 119.18055 | 37903 ft | 504 kts | 228° |
| 2026-05-08 07:24 | 20.29873 | 119.12767 | 37901 ft | 505 kts | 228° |
| 2026-05-08 07:25 | 20.24911 | 119.07483 | 37902 ft | 505 kts | 228° |
| 2026-05-08 07:26 | 20.17454 | 118.99550 | 37902 ft | 506 kts | 228° |
| 2026-05-08 07:26 | 20.12473 | 118.94258 | 37898 ft | 506 kts | 228° |
| 2026-05-08 07:27 | 20.07489 | 118.88966 | 37897 ft | 506 kts | 228° |
| 2026-05-08 07:27 | 20.02501 | 118.83677 | 37895 ft | 507 kts | 228° |
| 2026-05-08 07:28 | 19.97504 | 118.78383 | 37898 ft | 507 kts | 227° |
| 2026-05-08 07:28 | 19.92501 | 118.73087 | 37898 ft | 507 kts | 227° |
| 2026-05-08 07:29 | 19.87494 | 118.67793 | 37896 ft | 508 kts | 227° |
| 2026-05-08 07:29 | 19.82519 | 118.62536 | 37896 ft | 508 kts | 227° |
| 2026-05-08 07:30 | 19.77504 | 118.57242 | 37893 ft | 508 kts | 227° |
| 2026-05-08 07:30 | 19.72487 | 118.51952 | 37891 ft | 508 kts | 227° |
| 2026-05-08 07:31 | 19.71638 | 118.51057 | 37896 ft | 508 kts | 227° |